Time,TemperatureF,DewpointF,PressureIn,WindDirection,WindDirectionDegrees,WindSpeedMPH,WindSpeedGustMPH,Humidity,HourlyPrecipIn,Conditions,Clouds,dailyrainin,SoftwareType,DateUTC
2013-01-24 00:00:00,6.2,3.2,30.21,WNW,283,0.0,0.0,87,0.00,,---,0.00,VWS V14.01,2013-01-24 05:00:00,
2013-01-24 00:05:00,6.7,3.4,30.20,WNW,284,0.0,0.0,86,0.00,,---,0.00,VWS V14.01,2013-01-24 05:05:00,
2013-01-24 00:10:00,6.8,3.3,30.20,WNW,284,0.0,0.0,85,0.00,,---,0.00,VWS V14.01,2013-01-24 05:10:00,
2013-01-24 00:15:00,6.8,3.0,30.20,WNW,284,0.0,0.0,84,0.00,,---,0.00,VWS V14.01,2013-01-24 05:15:00,
2013-01-24 00:20:00,6.8,3.0,30.20,WNW,284,0.0,0.0,84,0.00,,---,0.00,VWS V14.01,2013-01-24 05:20:00,
2013-01-24 00:25:00,6.8,3.0,30.19,WNW,284,0.0,0.0,84,0.00,,---,0.00,VWS V14.01,2013-01-24 05:25:00,
2013-01-24 00:30:00,6.7,2.9,30.19,WNW,283,0.0,0.0,84,0.00,,---,0.00,VWS V14.01,2013-01-24 05:30:00,
2013-01-24 00:35:00,6.5,2.7,30.19,WNW,284,0.0,0.0,84,0.00,,---,0.00,VWS V14.01,2013-01-24 05:35:00,
2013-01-24 00:40:00,6.3,2.5,30.19,WNW,284,0.0,0.0,84,0.00,,---,0.00,VWS V14.01,2013-01-24 05:40:00,
2013-01-24 00:45:00,6.2,2.7,30.19,WNW,284,0.0,0.0,85,0.00,,---,0.00,VWS V14.01,2013-01-24 05:45:00,
2013-01-24 00:50:00,6.0,2.5,30.19,WNW,284,0.0,0.0,85,0.00,,---,0.00,VWS V14.01,2013-01-24 05:50:00,
2013-01-24 00:55:00,5.9,2.6,30.19,WNW,284,0.0,0.0,86,0.00,,---,0.00,VWS V14.01,2013-01-24 05:55:00,
2013-01-24 01:00:00,6.0,3.0,30.19,WNW,283,0.0,0.0,87,0.00,,---,0.00,VWS V14.01,2013-01-24 06:00:00,
2013-01-24 01:05:00,6.2,3.2,30.18,WNW,284,0.0,0.0,87,0.00,,---,0.00,VWS V14.01,2013-01-24 06:05:00,
2013-01-24 01:10:00,6.1,3.1,30.18,WNW,283,0.0,0.0,87,0.00,,---,0.00,VWS V14.01,2013-01-24 06:10:00,
2013-01-24 01:15:00,6.1,3.1,30.18,WNW,283,0.0,0.0,87,0.00,,---,0.00,VWS V14.01,2013-01-24 06:15:00,
2013-01-24 01:20:00,6.0,3.0,30.18,WNW,284,0.0,0.0,87,0.00,,---,0.00,VWS V14.01,2013-01-24 06:20:00,
2013-01-24 01:25:00,6.1,3.1,30.18,WNW,283,0.0,0.0,87,0.00,,---,0.00,VWS V14.01,2013-01-24 06:25:00,
2013-01-24 01:30:00,6.0,2.7,30.17,WNW,283,0.0,0.0,86,0.00,,---,0.00,VWS V14.01,2013-01-24 06:30:00,
2013-01-24 01:35:00,5.9,2.9,30.17,WNW,284,0.0,0.0,87,0.00,,---,0.00,VWS V14.01,2013-01-24 06:35:00,
2013-01-24 01:40:00,5.9,2.9,30.17,WNW,284,0.0,0.0,87,0.00,,---,0.00,VWS V14.01,2013-01-24 06:40:00,
2013-01-24 01:45:00,6.1,3.1,30.17,NW,319,0.0,0.0,87,0.00,,---,0.00,VWS V14.01,2013-01-24 06:45:00,
2013-01-24 01:50:00,6.2,3.2,30.17,NW,319,0.0,0.0,87,0.00,,---,0.00,VWS V14.01,2013-01-24 06:50:00,
2013-01-24 01:55:00,6.3,3.0,30.17,NW,319,0.0,0.0,86,0.00,,---,0.00,VWS V14.01,2013-01-24 06:55:00,
2013-01-24 02:00:00,6.3,3.0,30.17,NW,319,0.0,0.0,86,0.00,,---,0.00,VWS V14.01,2013-01-24 07:00:00,
2013-01-24 02:05:00,6.2,2.9,30.17,NW,319,0.0,0.0,86,0.00,,---,0.00,VWS V14.01,2013-01-24 07:05:00,
2013-01-24 02:10:00,6.0,2.7,30.17,NW,319,0.0,0.0,86,0.00,,---,0.00,VWS V14.01,2013-01-24 07:10:00,
2013-01-24 02:15:00,5.9,2.6,30.17,NW,319,0.0,0.0,86,0.00,,---,0.00,VWS V14.01,2013-01-24 07:15:00,
2013-01-24 02:20:00,5.7,2.4,30.17,NW,319,0.0,0.0,86,0.00,,---,0.00,VWS V14.01,2013-01-24 07:20:00,
2013-01-24 02:25:00,5.6,2.3,30.17,NW,319,0.0,0.0,86,0.00,,---,0.00,VWS V14.01,2013-01-24 07:25:00,
2013-01-24 02:30:00,5.6,2.3,30.16,NW,319,0.0,0.0,86,0.00,,---,0.00,VWS V14.01,2013-01-24 07:30:00,
2013-01-24 02:35:00,5.5,2.5,30.16,NW,319,0.0,0.0,87,0.00,,---,0.00,VWS V14.01,2013-01-24 07:35:00,
2013-01-24 02:40:00,5.4,2.4,30.16,NW,319,0.0,0.0,87,0.00,,---,0.00,VWS V14.01,2013-01-24 07:40:00,
2013-01-24 02:45:00,5.2,2.2,30.16,NW,319,0.0,0.0,87,0.00,,---,0.00,VWS V14.01,2013-01-24 07:45:00,
2013-01-24 02:50:00,5.1,2.1,30.16,NW,319,0.0,0.0,87,0.00,,---,0.00,VWS V14.01,2013-01-24 07:50:00,
2013-01-24 02:55:00,5.0,2.0,30.16,NW,319,0.0,0.0,87,0.00,,---,0.00,VWS V14.01,2013-01-24 07:55:00,
2013-01-24 03:00:00,4.8,1.8,30.16,NW,319,0.0,0.0,87,0.00,,---,0.00,VWS V14.01,2013-01-24 08:00:00,
2013-01-24 03:05:00,5.0,2.2,30.16,NW,319,0.0,0.0,88,0.00,,---,0.00,VWS V14.01,2013-01-24 08:05:00,
2013-01-24 03:10:00,5.1,2.6,30.16,NW,319,0.0,0.0,89,0.00,,---,0.00,VWS V14.01,2013-01-24 08:10:00,
2013-01-24 03:15:00,5.2,2.7,30.16,NW,319,0.0,0.0,89,0.00,,---,0.00,VWS V14.01,2013-01-24 08:15:00,
2013-01-24 03:20:00,5.3,2.5,30.16,NW,319,0.0,0.0,88,0.00,,---,0.00,VWS V14.01,2013-01-24 08:20:00,
2013-01-24 03:25:00,5.4,2.9,30.16,NW,319,0.0,0.0,89,0.00,,---,0.00,VWS V14.01,2013-01-24 08:25:00,
2013-01-24 03:30:00,5.5,3.0,30.16,NW,319,0.0,0.0,89,0.00,,---,0.00,VWS V14.01,2013-01-24 08:30:00,
2013-01-24 03:35:00,5.5,2.7,30.16,NW,319,0.0,0.0,88,0.00,,---,0.00,VWS V14.01,2013-01-24 08:35:00,
2013-01-24 03:40:00,5.6,2.8,30.16,NW,319,0.0,0.0,88,0.00,,---,0.00,VWS V14.01,2013-01-24 08:40:00,
2013-01-24 03:45:00,5.6,2.8,30.15,NW,319,0.0,0.0,88,0.00,,---,0.00,VWS V14.01,2013-01-24 08:45:00,
2013-01-24 03:50:00,5.6,2.8,30.15,NW,319,0.0,0.0,88,0.00,,---,0.00,VWS V14.01,2013-01-24 08:50:00,
2013-01-24 03:55:00,5.7,2.9,30.15,NW,319,0.0,0.0,88,0.00,,---,0.00,VWS V14.01,2013-01-24 08:55:00,
2013-01-24 04:00:00,5.9,3.1,30.16,SSW,200,0.0,1.0,88,0.00,,---,0.00,VWS V14.01,2013-01-24 09:00:00,
2013-01-24 04:05:00,6.0,3.2,30.16,SSW,200,0.0,0.0,88,0.00,,---,0.00,VWS V14.01,2013-01-24 09:05:00,
2013-01-24 04:10:00,6.0,3.2,30.16,SSW,200,0.0,0.0,88,0.00,,---,0.00,VWS V14.01,2013-01-24 09:10:00,
2013-01-24 04:15:00,6.2,3.4,30.16,SSE,150,0.0,1.0,88,0.00,,---,0.00,VWS V14.01,2013-01-24 09:15:00,
2013-01-24 04:20:00,6.3,3.5,30.16,SSE,150,0.0,1.0,88,0.00,,---,0.00,VWS V14.01,2013-01-24 09:20:00,
2013-01-24 04:25:00,6.3,3.3,30.16,SSE,150,0.0,1.0,87,0.00,,---,0.00,VWS V14.01,2013-01-24 09:25:00,
2013-01-24 04:30:00,6.4,3.6,30.16,SSE,150,0.0,1.0,88,0.00,,---,0.00,VWS V14.01,2013-01-24 09:30:00,
2013-01-24 04:35:00,6.7,3.7,30.16,WNW,283,0.0,1.0,87,0.00,,---,0.00,VWS V14.01,2013-01-24 09:35:00,
2013-01-24 04:40:00,6.8,3.8,30.16,West,273,0.0,1.0,87,0.00,,---,0.00,VWS V14.01,2013-01-24 09:40:00,
2013-01-24 04:45:00,6.9,3.9,30.16,SSE,150,0.0,1.0,87,0.00,,---,0.00,VWS V14.01,2013-01-24 09:45:00,
2013-01-24 04:50:00,6.9,3.6,30.16,SSE,150,0.0,1.0,86,0.00,,---,0.00,VWS V14.01,2013-01-24 09:50:00,
2013-01-24 04:55:00,6.9,3.6,30.17,SSE,150,0.0,1.0,86,0.00,,---,0.00,VWS V14.01,2013-01-24 09:55:00,
2013-01-24 05:00:00,6.8,3.5,30.17,SSE,150,0.0,1.0,86,0.00,,---,0.00,VWS V14.01,2013-01-24 10:00:00,
2013-01-24 05:05:00,6.8,3.5,30.16,SSE,150,0.0,0.0,86,0.00,,---,0.00,VWS V14.01,2013-01-24 10:05:00,
2013-01-24 05:10:00,7.0,3.7,30.17,SE,131,1.0,1.0,86,0.00,,---,0.00,VWS V14.01,2013-01-24 10:10:00,
2013-01-24 05:15:00,7.3,4.0,30.17,SE,128,1.0,1.0,86,0.00,,---,0.00,VWS V14.01,2013-01-24 10:15:00,
2013-01-24 05:20:00,7.7,4.1,30.17,West,266,0.0,1.0,85,0.00,,---,0.00,VWS V14.01,2013-01-24 10:20:00,
2013-01-24 05:25:00,8.1,4.3,30.17,West,264,0.0,1.0,84,0.00,,---,0.00,VWS V14.01,2013-01-24 10:25:00,
2013-01-24 05:30:00,8.4,4.3,30.17,WSW,257,0.0,1.0,83,0.00,,---,0.00,VWS V14.01,2013-01-24 10:30:00,
2013-01-24 05:35:00,8.8,4.4,30.17,NNE,28,0.0,1.0,82,0.00,,---,0.00,VWS V14.01,2013-01-24 10:35:00,
2013-01-24 05:40:00,9.1,4.5,30.18,SE,142,0.0,1.0,81,0.00,,---,0.00,VWS V14.01,2013-01-24 10:40:00,
2013-01-24 05:45:00,9.1,4.2,30.18,SE,139,1.0,1.0,80,0.00,,---,0.00,VWS V14.01,2013-01-24 10:45:00,
2013-01-24 05:50:00,9.0,4.1,30.18,SSE,152,2.0,2.0,80,0.00,,---,0.00,VWS V14.01,2013-01-24 10:50:00,
2013-01-24 05:55:00,8.9,4.3,30.18,ESE,116,0.0,2.0,81,0.00,,---,0.00,VWS V14.01,2013-01-24 10:55:00,
2013-01-24 06:00:00,8.7,4.3,30.19,ENE,59,0.0,2.0,82,0.00,,---,0.00,VWS V14.01,2013-01-24 11:00:00,
2013-01-24 06:05:00,8.5,4.4,30.19,ENE,59,0.0,0.0,83,0.00,,---,0.00,VWS V14.01,2013-01-24 11:05:00,
2013-01-24 06:10:00,8.3,4.5,30.19,ENE,60,0.0,1.0,84,0.00,,---,0.00,VWS V14.01,2013-01-24 11:10:00,
2013-01-24 06:15:00,8.2,4.6,30.19,ENE,59,1.0,1.0,85,0.00,,---,0.00,VWS V14.01,2013-01-24 11:15:00,
2013-01-24 06:20:00,8.1,4.5,30.20,ENE,59,0.0,1.0,85,0.00,,---,0.00,VWS V14.01,2013-01-24 11:20:00,
2013-01-24 06:25:00,7.8,4.0,30.20,ESE,104,1.0,1.0,84,0.00,,---,0.00,VWS V14.01,2013-01-24 11:25:00,
2013-01-24 06:30:00,7.6,3.8,30.20,ESE,104,0.0,1.0,84,0.00,,---,0.00,VWS V14.01,2013-01-24 11:30:00,
2013-01-24 06:35:00,7.4,3.6,30.20,ESE,104,0.0,0.0,84,0.00,,---,0.00,VWS V14.01,2013-01-24 11:35:00,
2013-01-24 06:40:00,7.2,3.1,30.20,ESE,104,0.0,0.0,83,0.00,,---,0.00,VWS V14.01,2013-01-24 11:40:00,
2013-01-24 06:45:00,7.0,3.2,30.20,ESE,104,0.0,0.0,84,0.00,,---,0.00,VWS V14.01,2013-01-24 11:45:00,
2013-01-24 06:50:00,7.0,3.2,30.21,SE,127,0.0,1.0,84,0.00,,---,0.00,VWS V14.01,2013-01-24 11:50:00,
2013-01-24 06:55:00,7.0,3.5,30.21,SE,127,0.0,1.0,85,0.00,,---,0.00,VWS V14.01,2013-01-24 11:55:00,
2013-01-24 07:00:00,6.9,3.3,30.21,SE,128,0.0,1.0,85,0.00,,---,0.00,VWS V14.01,2013-01-24 12:00:00,
2013-01-24 07:05:00,7.1,3.5,30.21,West,281,0.0,1.0,85,0.00,,---,0.00,VWS V14.01,2013-01-24 12:05:00,
2013-01-24 07:10:00,7.4,3.6,30.21,North,352,1.0,1.0,84,0.00,,---,0.00,VWS V14.01,2013-01-24 12:10:00,
2013-01-24 07:15:00,7.5,3.4,30.21,North,352,0.0,1.0,83,0.00,,---,0.00,VWS V14.01,2013-01-24 12:15:00,
2013-01-24 07:20:00,7.5,3.4,30.21,SSE,158,0.0,1.0,83,0.00,,---,0.00,VWS V14.01,2013-01-24 12:20:00,
2013-01-24 07:25:00,7.6,3.3,30.21,East,88,0.0,1.0,82,0.00,,---,0.00,VWS V14.01,2013-01-24 12:25:00,
2013-01-24 07:30:00,7.8,3.2,30.21,WNW,302,0.0,3.0,81,0.00,,---,0.00,VWS V14.01,2013-01-24 12:30:00,
2013-01-24 07:35:00,7.9,3.3,30.21,NNE,26,3.0,3.0,81,0.00,,---,0.00,VWS V14.01,2013-01-24 12:35:00,
2013-01-24 07:40:00,8.4,3.2,30.21,NNW,336,1.0,3.0,79,0.00,,---,0.00,VWS V14.01,2013-01-24 12:40:00,
2013-01-24 07:45:00,8.9,3.2,30.22,NNE,16,2.0,3.0,77,0.00,,---,0.00,VWS V14.01,2013-01-24 12:45:00,
2013-01-24 07:50:00,9.2,3.2,30.22,North,358,2.0,6.0,76,0.00,,---,0.00,VWS V14.01,2013-01-24 12:50:00,
2013-01-24 07:55:00,9.5,3.2,30.22,NNW,338,2.0,6.0,75,0.00,,---,0.00,VWS V14.01,2013-01-24 12:55:00,
2013-01-24 08:00:00,9.9,3.3,30.22,NNW,347,1.0,6.0,74,0.00,,---,0.00,VWS V14.01,2013-01-24 13:00:00,
2013-01-24 08:05:00,10.1,2.9,30.22,North,350,3.0,7.0,72,0.00,,---,0.00,VWS V14.01,2013-01-24 13:05:00,
2013-01-24 08:10:00,10.3,2.5,30.22,NNE,13,3.0,12.0,70,0.00,,---,0.00,VWS V14.01,2013-01-24 13:10:00,
2013-01-24 08:15:00,10.6,2.8,30.23,NNE,13,4.0,12.0,70,0.00,,---,0.00,VWS V14.01,2013-01-24 13:15:00,
2013-01-24 08:20:00,10.7,2.2,30.23,NNE,20,2.0,12.0,68,0.00,,---,0.00,VWS V14.01,2013-01-24 13:20:00,
2013-01-24 08:25:00,10.8,2.6,30.23,NE,37,5.0,12.0,69,0.00,,---,0.00,VWS V14.01,2013-01-24 13:25:00,
2013-01-24 08:30:00,10.9,2.4,30.23,NNE,19,5.0,12.0,68,0.00,,---,0.00,VWS V14.01,2013-01-24 13:30:00,
2013-01-24 08:35:00,11.0,2.8,30.23,NNE,26,7.0,7.0,69,0.00,,---,0.00,VWS V14.01,2013-01-24 13:35:00,
2013-01-24 08:40:00,11.2,2.7,30.23,NW,321,4.0,8.0,68,0.00,,---,0.00,VWS V14.01,2013-01-24 13:40:00,
2013-01-24 08:45:00,11.4,2.6,30.23,North,11,3.0,10.0,67,0.00,,---,0.00,VWS V14.01,2013-01-24 13:45:00,
2013-01-24 08:50:00,11.5,2.0,30.24,NNE,33,6.0,11.0,65,0.00,,---,0.00,VWS V14.01,2013-01-24 13:50:00,
2013-01-24 08:55:00,11.7,2.5,30.24,NNW,337,2.0,11.0,66,0.00,,---,0.00,VWS V14.01,2013-01-24 13:55:00,
2013-01-24 09:00:00,11.9,2.4,30.24,WNW,293,4.0,11.0,65,0.00,,---,0.00,VWS V14.01,2013-01-24 14:00:00,
2013-01-24 09:05:00,12.1,2.3,30.24,NNE,26,6.0,8.0,64,0.00,,---,0.00,VWS V14.01,2013-01-24 14:05:00,
2013-01-24 09:10:00,12.2,2.4,30.25,NW,317,6.0,11.0,64,0.00,,---,0.00,VWS V14.01,2013-01-24 14:10:00,
2013-01-24 09:15:00,12.4,2.2,30.25,NE,44,7.0,11.0,63,0.00,,---,0.00,VWS V14.01,2013-01-24 14:15:00,
2013-01-24 09:20:00,12.6,2.4,30.25,NNE,28,5.0,11.0,63,0.00,,---,0.00,VWS V14.01,2013-01-24 14:20:00,
2013-01-24 09:25:00,12.8,1.9,30.25,NE,46,4.0,11.0,61,0.00,,---,0.00,VWS V14.01,2013-01-24 14:25:00,
2013-01-24 09:30:00,13.0,1.7,30.25,NNE,26,4.0,13.0,60,0.00,,---,0.00,VWS V14.01,2013-01-24 14:30:00,
2013-01-24 09:45:00,13.5,2.2,30.26,NNE,30,5.0,10.0,60,0.00,,---,0.00,VWS V14.01,2013-01-24 14:45:00,
2013-01-24 09:50:00,13.6,2.7,30.26,NW,316,3.0,10.0,61,0.00,,---,0.00,VWS V14.01,2013-01-24 14:50:00,
2013-01-24 09:55:00,14.1,3.1,30.26,WNW,289,4.0,10.0,61,0.00,,---,0.00,VWS V14.01,2013-01-24 14:55:00,
2013-01-24 10:00:00,14.4,1.6,30.26,NNE,28,0.0,10.0,56,0.00,,---,0.00,VWS V14.01,2013-01-24 15:00:00,
2013-01-24 10:05:00,14.5,2.4,30.26,WNW,285,1.0,7.0,58,0.00,,---,0.00,VWS V14.01,2013-01-24 15:05:00,
2013-01-24 10:10:00,14.7,1.5,30.26,NNW,327,3.0,9.0,55,0.00,,---,0.00,VWS V14.01,2013-01-24 15:10:00,
2013-01-24 10:15:00,14.8,2.7,30.27,NNE,30,9.0,10.0,58,0.00,,---,0.00,VWS V14.01,2013-01-24 15:15:00,
2013-01-24 10:20:00,15.2,2.3,30.27,WNW,283,9.0,12.0,56,0.00,,---,0.00,VWS V14.01,2013-01-24 15:20:00,
2013-01-24 10:25:00,15.0,1.0,30.27,NNW,328,4.0,16.0,53,0.00,,---,0.00,VWS V14.01,2013-01-24 15:25:00,
2013-01-24 10:30:00,15.0,1.8,30.27,NE,34,11.0,16.0,55,0.00,,---,0.00,VWS V14.01,2013-01-24 15:30:00,
2013-01-24 10:35:00,14.8,1.2,30.27,North,349,3.0,11.0,54,0.00,,---,0.00,VWS V14.01,2013-01-24 15:35:00,
2013-01-24 10:40:00,15.0,1.8,30.27,North,10,7.0,11.0,55,0.00,,---,0.00,VWS V14.01,2013-01-24 15:40:00,
2013-01-24 10:45:00,15.3,1.2,30.27,NW,304,2.0,11.0,53,0.00,,---,0.00,VWS V14.01,2013-01-24 15:45:00,
2013-01-24 10:50:00,15.8,2.1,30.27,WNW,287,7.0,11.0,54,0.00,,---,0.00,VWS V14.01,2013-01-24 15:50:00,
2013-01-24 10:55:00,15.9,0.6,30.27,NW,304,2.0,13.0,50,0.00,,---,0.00,VWS V14.01,2013-01-24 15:55:00,
2013-01-24 11:00:00,16.3,2.2,30.27,NNE,29,5.0,13.0,53,0.00,,---,0.00,VWS V14.01,2013-01-24 16:00:00,
2013-01-24 11:05:00,16.5,2.0,30.27,NNE,30,4.0,9.0,52,0.00,,---,0.00,VWS V14.01,2013-01-24 16:05:00,
2013-01-24 11:10:00,16.7,1.3,30.27,NNE,24,2.0,9.0,50,0.00,,---,0.00,VWS V14.01,2013-01-24 16:10:00,
2013-01-24 11:15:00,16.9,1.1,30.26,NE,48,4.0,10.0,49,0.00,,---,0.00,VWS V14.01,2013-01-24 16:15:00,
2013-01-24 11:20:00,17.0,0.7,30.26,NNE,30,6.0,13.0,48,0.00,,---,0.00,VWS V14.01,2013-01-24 16:20:00,
2013-01-24 11:25:00,17.2,0.4,30.27,WSW,245,12.0,14.0,47,0.00,,---,0.00,VWS V14.01,2013-01-24 16:25:00,
2013-01-24 11:30:00,17.5,-0.2,30.26,NW,305,2.0,14.0,45,0.00,,---,0.00,VWS V14.01,2013-01-24 16:30:00,
2013-01-24 11:35:00,17.8,-0.9,30.26,WSW,253,11.0,11.0,43,0.00,,---,0.00,VWS V14.01,2013-01-24 16:35:00,
2013-01-24 11:40:00,17.9,-0.3,30.26,NNE,23,9.0,12.0,44,0.00,,---,0.00,VWS V14.01,2013-01-24 16:40:00,
2013-01-24 11:45:00,18.1,-1.1,30.26,North,10,8.0,14.0,42,0.00,,---,0.00,VWS V14.01,2013-01-24 16:45:00,
2013-01-24 11:50:00,18.3,-0.9,30.26,WNW,301,10.0,15.0,42,0.00,,---,0.00,VWS V14.01,2013-01-24 16:50:00,
2013-01-24 11:55:00,18.3,-1.5,30.26,NNW,343,8.0,15.0,41,0.00,,---,0.00,VWS V14.01,2013-01-24 16:55:00,
2013-01-24 12:00:00,18.5,-2.3,30.27,NW,305,6.0,15.0,39,0.00,,---,0.00,VWS V14.01,2013-01-24 17:00:00,
2013-01-24 12:05:00,18.3,-2.0,30.27,WNW,300,7.0,19.0,40,0.00,,---,0.00,VWS V14.01,2013-01-24 17:05:00,
2013-01-24 12:10:00,18.5,-1.8,30.26,North,352,5.0,19.0,40,0.00,,---,0.00,VWS V14.01,2013-01-24 17:10:00,
2013-01-24 12:15:00,18.6,-1.7,30.26,NNW,335,7.0,19.0,40,0.00,,---,0.00,VWS V14.01,2013-01-24 17:15:00,
2013-01-24 12:20:00,19.1,-0.7,30.26,NNE,32,7.0,19.0,41,0.00,,---,0.00,VWS V14.01,2013-01-24 17:20:00,
2013-01-24 12:25:00,19.4,-0.4,30.26,WNW,297,4.0,19.0,41,0.00,,---,0.00,VWS V14.01,2013-01-24 17:25:00,
2013-01-24 12:30:00,19.1,-1.2,30.26,NNE,23,7.0,19.0,40,0.00,,---,0.00,VWS V14.01,2013-01-24 17:30:00,
2013-01-24 12:35:00,19.2,-2.2,30.26,West,280,9.0,17.0,38,0.00,,---,0.00,VWS V14.01,2013-01-24 17:35:00,
2013-01-24 12:40:00,19.0,-1.3,30.26,WNW,288,10.0,17.0,40,0.00,,---,0.00,VWS V14.01,2013-01-24 17:40:00,
2013-01-24 12:45:00,19.2,-1.1,30.25,WNW,302,3.0,17.0,40,0.00,,---,0.00,VWS V14.01,2013-01-24 17:45:00,
2013-01-24 12:50:00,19.7,-0.2,30.26,NNW,327,3.0,17.0,41,0.00,,---,0.00,VWS V14.01,2013-01-24 17:50:00,
2013-01-24 12:55:00,19.4,-1.5,30.26,North,4,8.0,17.0,39,0.00,,---,0.00,VWS V14.01,2013-01-24 17:55:00,
2013-01-24 13:00:00,19.7,-1.2,30.26,NNE,32,6.0,18.0,39,0.00,,---,0.00,VWS V14.01,2013-01-24 18:00:00,
2013-01-24 13:05:00,19.7,-2.3,30.26,WNW,292,13.0,17.0,37,0.00,,---,0.00,VWS V14.01,2013-01-24 18:05:00,
2013-01-24 13:10:00,19.9,-1.0,30.26,WSW,248,15.0,17.0,39,0.00,,---,0.00,VWS V14.01,2013-01-24 18:10:00,
2013-01-24 13:15:00,20.2,-0.8,30.27,WNW,299,7.0,17.0,39,0.00,,---,0.00,VWS V14.01,2013-01-24 18:15:00,
2013-01-24 13:20:00,20.5,-0.5,30.27,North,357,4.0,17.0,39,0.00,,---,0.00,VWS V14.01,2013-01-24 18:20:00,
2013-01-24 13:25:00,20.1,-2.0,30.27,NNW,332,8.0,17.0,37,0.00,,---,0.00,VWS V14.01,2013-01-24 18:25:00,
2013-01-24 13:30:00,19.9,-1.0,30.27,North,354,8.0,17.0,39,0.00,,---,0.00,VWS V14.01,2013-01-24 18:30:00,
2013-01-24 13:35:00,20.0,-3.0,30.27,NW,325,4.0,16.0,37,0.00,,,0.00,weatherlink.com 1.10,2013-01-24 18:35:00,
2013-01-24 13:40:00,20.3,-1.8,30.27,North,8,5.0,13.0,37,0.00,,---,0.00,VWS V14.01,2013-01-24 18:40:00,
2013-01-24 13:45:00,20.7,-0.9,30.28,NNE,20,16.0,17.0,38,0.00,,---,0.00,VWS V14.01,2013-01-24 18:45:00,
2013-01-24 13:50:00,20.4,-1.7,30.27,NW,307,3.0,17.0,37,0.00,,---,0.00,VWS V14.01,2013-01-24 18:50:00,
2013-01-24 13:55:00,20.4,-1.7,30.27,NNE,32,9.0,17.0,37,0.00,,---,0.00,VWS V14.01,2013-01-24 18:55:00,
2013-01-24 14:00:00,20.6,-1.0,30.27,NE,36,3.0,17.0,38,0.00,,---,0.00,VWS V14.01,2013-01-24 19:00:00,
2013-01-24 14:05:00,20.8,-0.8,30.27,WSW,246,9.0,15.0,38,0.00,,---,0.00,VWS V14.01,2013-01-24 19:05:00,
2013-01-24 14:10:00,20.7,-1.4,30.27,SW,232,2.0,15.0,37,0.00,,---,0.00,VWS V14.01,2013-01-24 19:10:00,
2013-01-24 14:15:00,21.0,-0.6,30.27,West,276,4.0,15.0,38,0.00,,---,0.00,VWS V14.01,2013-01-24 19:15:00,
2013-01-24 14:20:00,21.3,-0.3,30.28,North,6,7.0,15.0,38,0.00,,---,0.00,VWS V14.01,2013-01-24 19:20:00,
2013-01-24 14:25:00,21.2,-1.0,30.28,WNW,287,2.0,15.0,37,0.00,,---,0.00,VWS V14.01,2013-01-24 19:25:00,
2013-01-24 14:30:00,21.2,0.7,30.29,NNE,32,15.0,15.0,40,0.00,,---,0.00,VWS V14.01,2013-01-24 19:30:00,
2013-01-24 14:35:00,20.9,-1.8,30.29,NW,322,7.0,13.0,36,0.00,,---,0.00,VWS V14.01,2013-01-24 19:35:00,
2013-01-24 14:40:00,20.7,-2.0,30.29,NNW,337,3.0,19.0,36,0.00,,---,0.00,VWS V14.01,2013-01-24 19:40:00,
2013-01-24 14:45:00,20.6,-1.5,30.29,NW,325,6.0,19.0,37,0.00,,---,0.00,VWS V14.01,2013-01-24 19:45:00,
2013-01-24 14:50:00,20.5,0.0,30.29,NNW,338,3.0,19.0,40,0.00,,---,0.00,VWS V14.01,2013-01-24 19:50:00,
2013-01-24 14:55:00,20.8,-0.2,30.29,NNE,13,6.0,19.0,39,0.00,,---,0.00,VWS V14.01,2013-01-24 19:55:00,
2013-01-24 15:00:00,20.7,-1.4,30.29,NNW,337,4.0,19.0,37,0.00,,---,0.00,VWS V14.01,2013-01-24 20:00:00,
2013-01-24 15:05:00,21.1,-0.5,30.30,NW,326,4.0,8.0,38,0.00,,---,0.00,VWS V14.01,2013-01-24 20:05:00,
2013-01-24 15:10:00,21.2,-1.0,30.30,NNE,25,5.0,12.0,37,0.00,,---,0.00,VWS V14.01,2013-01-24 20:10:00,
2013-01-24 15:15:00,20.8,-1.4,30.31,NNW,335,11.0,16.0,37,0.00,,---,0.00,VWS V14.01,2013-01-24 20:15:00,
2013-01-24 15:20:00,20.5,-1.1,30.31,NW,315,7.0,18.0,38,0.00,,---,0.00,VWS V14.01,2013-01-24 20:20:00,
2013-01-24 15:25:00,20.4,-1.1,30.31,NW,308,6.0,18.0,38,0.00,,---,0.00,VWS V14.01,2013-01-24 20:25:00,
2013-01-24 15:30:00,20.4,-1.7,30.31,NW,307,7.0,18.0,37,0.00,,---,0.00,VWS V14.01,2013-01-24 20:30:00,
2013-01-24 15:35:00,20.4,-1.7,30.31,West,259,6.0,24.0,37,0.00,,---,0.00,VWS V14.01,2013-01-24 20:35:00,
2013-01-24 15:40:00,20.2,-1.3,30.31,SW,232,8.0,24.0,38,0.00,,---,0.00,VWS V14.01,2013-01-24 20:40:00,
2013-01-24 15:45:00,20.4,-0.6,30.31,West,278,4.0,24.0,39,0.00,,---,0.00,VWS V14.01,2013-01-24 20:45:00,
2013-01-24 15:50:00,20.4,-0.6,30.31,NNW,335,5.0,24.0,39,0.00,,---,0.00,VWS V14.01,2013-01-24 20:50:00,
2013-01-24 15:55:00,20.4,-0.6,30.31,NW,310,6.0,24.0,39,0.00,,---,0.00,VWS V14.01,2013-01-24 20:55:00,
2013-01-24 16:00:00,20.3,-0.2,30.31,WNW,295,3.0,24.0,40,0.00,,---,0.00,VWS V14.01,2013-01-24 21:00:00,
2013-01-24 16:05:00,20.3,-0.7,30.31,WNW,294,11.0,11.0,39,0.00,,---,0.00,VWS V14.01,2013-01-24 21:05:00,
2013-01-24 16:10:00,20.2,-0.2,30.32,NW,304,4.0,12.0,40,0.00,,---,0.00,VWS V14.01,2013-01-24 21:10:00,
2013-01-24 16:15:00,20.1,-0.3,30.32,NNW,333,8.0,15.0,40,0.00,,---,0.00,VWS V14.01,2013-01-24 21:15:00,
2013-01-24 16:20:00,20.1,-1.4,30.32,WNW,303,6.0,15.0,38,0.00,,---,0.00,VWS V14.01,2013-01-24 21:20:00,
2013-01-24 16:25:00,20.0,-1.5,30.32,WNW,290,19.0,19.0,38,0.00,,---,0.00,VWS V14.01,2013-01-24 21:25:00,
2013-01-24 16:30:00,20.0,-1.0,30.33,West,266,4.0,19.0,39,0.00,,---,0.00,VWS V14.01,2013-01-24 21:30:00,
2013-01-24 16:35:00,19.8,-1.7,30.33,WNW,294,5.0,17.0,38,0.00,,---,0.00,VWS V14.01,2013-01-24 21:35:00,
2013-01-24 16:40:00,19.7,-1.2,30.33,WNW,282,3.0,17.0,39,0.00,,---,0.00,VWS V14.01,2013-01-24 21:40:00,
2013-01-24 16:45:00,19.7,-1.2,30.33,West,274,3.0,17.0,39,0.00,,---,0.00,VWS V14.01,2013-01-24 21:45:00,
2013-01-24 16:50:00,19.5,-1.4,30.33,NNE,21,7.0,17.0,39,0.00,,---,0.00,VWS V14.01,2013-01-24 21:50:00,
2013-01-24 16:55:00,19.4,-1.5,30.33,NW,305,6.0,17.0,39,0.00,,---,0.00,VWS V14.01,2013-01-24 21:55:00,
2013-01-24 17:00:00,19.2,-1.7,30.33,NW,304,4.0,17.0,39,0.00,,---,0.00,VWS V14.01,2013-01-24 22:00:00,
2013-01-24 17:05:00,19.1,-1.8,30.34,WNW,290,1.0,10.0,39,0.00,,---,0.00,VWS V14.01,2013-01-24 22:05:00,
2013-01-24 17:10:00,19.0,-1.9,30.34,SW,236,4.0,12.0,39,0.00,,---,0.00,VWS V14.01,2013-01-24 22:10:00,
2013-01-24 17:15:00,19.0,-0.8,30.34,NNW,336,1.0,12.0,41,0.00,,---,0.00,VWS V14.01,2013-01-24 22:15:00,
2013-01-24 17:20:00,18.9,-1.4,30.34,WNW,298,10.0,12.0,40,0.00,,---,0.00,VWS V14.01,2013-01-24 22:20:00,
2013-01-24 17:25:00,18.8,-1.0,30.35,NNW,335,5.0,12.0,41,0.00,,---,0.00,VWS V14.01,2013-01-24 22:25:00,
2013-01-24 17:30:00,18.7,-0.6,30.35,NW,305,5.0,12.0,42,0.00,,---,0.00,VWS V14.01,2013-01-24 22:30:00,
2013-01-24 17:35:00,18.6,-1.7,30.36,West,281,5.0,15.0,40,0.00,,---,0.00,VWS V14.01,2013-01-24 22:35:00,
2013-01-24 17:40:00,18.5,-1.3,30.36,WNW,285,4.0,15.0,41,0.00,,---,0.00,VWS V14.01,2013-01-24 22:40:00,
2013-01-24 17:45:00,18.4,-1.4,30.36,NNW,330,4.0,15.0,41,0.00,,---,0.00,VWS V14.01,2013-01-24 22:45:00,
2013-01-24 17:50:00,18.3,-0.4,30.37,NW,326,4.0,15.0,43,0.00,,---,0.00,VWS V14.01,2013-01-24 22:50:00,
2013-01-24 17:55:00,18.2,-1.0,30.37,West,281,6.0,15.0,42,0.00,,---,0.00,VWS V14.01,2013-01-24 22:55:00,
2013-01-24 18:00:00,18.0,-1.2,30.38,West,266,2.0,15.0,42,0.00,,---,0.00,VWS V14.01,2013-01-24 23:00:00,
2013-01-24 18:05:00,17.8,-1.4,30.38,WNW,300,5.0,16.0,42,0.00,,---,0.00,VWS V14.01,2013-01-24 23:05:00,
2013-01-24 18:10:00,17.6,-1.6,30.38,North,358,4.0,16.0,42,0.00,,---,0.00,VWS V14.01,2013-01-24 23:10:00,
2013-01-24 18:15:00,17.4,-2.3,30.38,West,270,8.0,16.0,41,0.00,,---,0.00,VWS V14.01,2013-01-24 23:15:00,
2013-01-24 18:20:00,17.3,-1.9,30.37,NW,314,3.0,16.0,42,0.00,,---,0.00,VWS V14.01,2013-01-24 23:20:00,
2013-01-24 18:25:00,17.2,-1.4,30.38,WNW,294,7.0,16.0,43,0.00,,---,0.00,VWS V14.01,2013-01-24 23:25:00,
2013-01-24 18:30:00,17.0,-2.1,30.37,WNW,298,2.0,16.0,42,0.00,,---,0.00,VWS V14.01,2013-01-24 23:30:00,
2013-01-24 18:35:00,16.8,-1.3,30.38,North,352,1.0,11.0,44,0.00,,---,0.00,VWS V14.01,2013-01-24 23:35:00,
2013-01-24 18:40:00,16.7,-1.9,30.38,WNW,296,3.0,11.0,43,0.00,,---,0.00,VWS V14.01,2013-01-24 23:40:00,
2013-01-24 18:45:00,16.6,-2.0,30.38,NW,315,2.0,11.0,43,0.00,,---,0.00,VWS V14.01,2013-01-24 23:45:00,
2013-01-24 18:50:00,16.4,-2.2,30.38,WNW,294,5.0,14.0,43,0.00,,---,0.00,VWS V14.01,2013-01-24 23:50:00,
2013-01-24 18:55:00,16.3,-1.8,30.39,West,273,17.0,18.0,44,0.00,,---,0.00,VWS V14.01,2013-01-24 23:55:00,
2013-01-24 19:00:00,16.2,-1.4,30.39,WNW,288,11.0,18.0,45,0.00,,---,0.00,VWS V14.01,2013-01-25 00:00:00,
2013-01-24 19:05:00,16.1,-1.5,30.40,WNW,295,10.0,17.0,45,0.00,,---,0.00,VWS V14.01,2013-01-25 00:05:00,
2013-01-24 19:10:00,16.0,-1.6,30.40,West,269,13.0,19.0,45,0.00,,---,0.00,VWS V14.01,2013-01-25 00:10:00,
2013-01-24 19:15:00,15.9,-1.2,30.40,WNW,292,11.0,19.0,46,0.00,,---,0.00,VWS V14.01,2013-01-25 00:15:00,
2013-01-24 19:20:00,15.8,-1.3,30.40,NNE,19,4.0,19.0,46,0.00,,---,0.00,VWS V14.01,2013-01-25 00:20:00,
2013-01-24 19:25:00,15.7,-0.9,30.40,WNW,293,5.0,19.0,47,0.00,,---,0.00,VWS V14.01,2013-01-25 00:25:00,
2013-01-24 19:30:00,15.6,-1.0,30.41,WNW,293,5.0,19.0,47,0.00,,---,0.00,VWS V14.01,2013-01-25 00:30:00,
2013-01-24 19:35:00,15.6,-0.6,30.41,West,269,7.0,14.0,48,0.00,,---,0.00,VWS V14.01,2013-01-25 00:35:00,
2013-01-24 19:40:00,15.6,-0.2,30.41,West,262,9.0,14.0,49,0.00,,---,0.00,VWS V14.01,2013-01-25 00:40:00,
2013-01-24 19:45:00,15.5,-0.7,30.41,NNW,332,7.0,14.0,48,0.00,,---,0.00,VWS V14.01,2013-01-25 00:45:00,
2013-01-24 19:50:00,15.4,0.1,30.41,NNW,331,5.0,14.0,50,0.00,,---,0.00,VWS V14.01,2013-01-25 00:50:00,
2013-01-24 19:55:00,15.4,0.1,30.40,WNW,283,6.0,16.0,50,0.00,,---,0.00,VWS V14.01,2013-01-25 00:55:00,
2013-01-24 20:00:00,15.4,-0.3,30.40,NW,315,6.0,16.0,49,0.00,,---,0.00,VWS V14.01,2013-01-25 01:00:00,
2013-01-24 20:05:00,15.3,0.0,30.40,WNW,285,3.0,8.0,50,0.00,,---,0.00,VWS V14.01,2013-01-25 01:05:00,
2013-01-24 20:10:00,15.2,-0.1,30.40,NW,307,5.0,10.0,50,0.00,,---,0.00,VWS V14.01,2013-01-25 01:10:00,
2013-01-24 20:15:00,15.2,-0.1,30.40,NNW,343,4.0,14.0,50,0.00,,---,0.00,VWS V14.01,2013-01-25 01:15:00,
2013-01-24 20:20:00,15.1,-0.2,30.40,West,276,7.0,14.0,50,0.00,,---,0.00,VWS V14.01,2013-01-25 01:20:00,
2013-01-24 20:25:00,15.1,0.2,30.40,SW,218,2.0,14.0,51,0.00,,---,0.00,VWS V14.01,2013-01-25 01:25:00,
2013-01-24 20:30:00,15.0,0.2,30.40,NW,326,4.0,14.0,51,0.00,,---,0.00,VWS V14.01,2013-01-25 01:30:00,
2013-01-24 20:35:00,14.9,0.5,30.40,NW,316,4.0,10.0,52,0.00,,---,0.00,VWS V14.01,2013-01-25 01:35:00,
2013-01-24 20:40:00,14.9,0.1,30.40,WSW,252,3.0,15.0,51,0.00,,---,0.00,VWS V14.01,2013-01-25 01:40:00,
2013-01-24 20:45:00,14.9,0.1,30.40,WNW,302,3.0,15.0,51,0.00,,---,0.00,VWS V14.01,2013-01-25 01:45:00,
2013-01-24 20:50:00,14.8,0.4,30.41,WNW,283,10.0,15.0,52,0.00,,---,0.00,VWS V14.01,2013-01-25 01:50:00,
2013-01-24 20:55:00,14.8,0.4,30.41,WNW,298,2.0,15.0,52,0.00,,---,0.00,VWS V14.01,2013-01-25 01:55:00,
2013-01-24 21:00:00,14.8,0.4,30.41,North,5,7.0,15.0,52,0.00,,---,0.00,VWS V14.01,2013-01-25 02:00:00,
2013-01-24 21:05:00,14.7,1.1,30.41,North,352,2.0,11.0,54,0.00,,---,0.00,VWS V14.01,2013-01-25 02:05:00,
2013-01-24 21:10:00,14.7,0.3,30.41,NW,312,6.0,11.0,52,0.00,,---,0.00,VWS V14.01,2013-01-25 02:10:00,
2013-01-24 21:15:00,14.6,0.2,30.41,NNW,340,2.0,11.0,52,0.00,,---,0.00,VWS V14.01,2013-01-25 02:15:00,
2013-01-24 21:20:00,14.6,0.6,30.41,North,349,4.0,11.0,53,0.00,,---,0.00,VWS V14.01,2013-01-25 02:20:00,
2013-01-24 21:25:00,14.6,1.0,30.41,NNW,334,3.0,12.0,54,0.00,,---,0.00,VWS V14.01,2013-01-25 02:25:00,
2013-01-24 21:30:00,14.6,0.6,30.41,NNE,32,3.0,12.0,53,0.00,,---,0.00,VWS V14.01,2013-01-25 02:30:00,
2013-01-24 21:35:00,14.5,0.5,30.42,NNW,335,3.0,7.0,53,0.00,,---,0.00,VWS V14.01,2013-01-25 02:35:00,
2013-01-24 21:40:00,14.5,0.5,30.42,ENE,65,10.0,10.0,53,0.00,,---,0.00,VWS V14.01,2013-01-25 02:40:00,
2013-01-24 21:45:00,14.4,0.4,30.42,NNW,335,4.0,10.0,53,0.00,,---,0.00,VWS V14.01,2013-01-25 02:45:00,
2013-01-24 21:50:00,14.4,0.4,30.42,NW,307,1.0,10.0,53,0.00,,---,0.00,VWS V14.01,2013-01-25 02:50:00,
2013-01-24 21:55:00,14.3,0.3,30.41,NW,316,4.0,10.0,53,0.00,,---,0.00,VWS V14.01,2013-01-25 02:55:00,
2013-01-24 22:00:00,14.2,0.6,30.42,NNW,336,3.0,10.0,54,0.00,,---,0.00,VWS V14.01,2013-01-25 03:00:00,
2013-01-24 22:05:00,14.1,0.1,30.42,WNW,299,4.0,7.0,53,0.00,,---,0.00,VWS V14.01,2013-01-25 03:05:00,
2013-01-24 22:10:00,14.1,0.5,30.42,WNW,295,4.0,7.0,54,0.00,,---,0.00,VWS V14.01,2013-01-25 03:10:00,
2013-01-24 22:15:00,14.0,0.4,30.41,NW,326,2.0,8.0,54,0.00,,---,0.00,VWS V14.01,2013-01-25 03:15:00,
2013-01-24 22:20:00,13.9,-0.1,30.41,WNW,302,3.0,8.0,53,0.00,,---,0.00,VWS V14.01,2013-01-25 03:20:00,
2013-01-24 22:25:00,13.9,-0.1,30.42,NW,323,6.0,9.0,53,0.00,,---,0.00,VWS V14.01,2013-01-25 03:25:00,
2013-01-24 22:30:00,13.9,-0.1,30.42,NW,305,2.0,10.0,53,0.00,,---,0.00,VWS V14.01,2013-01-25 03:30:00,
2013-01-24 22:35:00,13.7,-0.2,30.42,NW,314,3.0,6.0,53,0.00,,---,0.00,VWS V14.01,2013-01-25 03:35:00,
2013-01-24 22:40:00,13.7,-0.2,30.42,WNW,299,3.0,7.0,53,0.00,,---,0.00,VWS V14.01,2013-01-25 03:40:00,
2013-01-24 22:45:00,13.6,-0.3,30.42,WSW,245,3.0,8.0,53,0.00,,---,0.00,VWS V14.01,2013-01-25 03:45:00,
2013-01-24 22:50:00,13.6,-0.3,30.42,WNW,295,3.0,8.0,53,0.00,,---,0.00,VWS V14.01,2013-01-25 03:50:00,
2013-01-24 22:55:00,13.5,-0.4,30.43,WNW,303,10.0,11.0,53,0.00,,---,0.00,VWS V14.01,2013-01-25 03:55:00,
2013-01-24 23:00:00,13.5,-0.4,30.43,NW,312,3.0,11.0,53,0.00,,---,0.00,VWS V14.01,2013-01-25 04:00:00,
2013-01-24 23:05:00,13.5,-0.8,30.43,NW,319,5.0,12.0,52,0.00,,---,0.00,VWS V14.01,2013-01-25 04:05:00,
2013-01-24 23:10:00,13.5,0.0,30.43,WNW,294,6.0,12.0,54,0.00,,---,0.00,VWS V14.01,2013-01-25 04:10:00,
2013-01-24 23:15:00,13.4,-0.5,30.42,WSW,242,6.0,12.0,53,0.00,,---,0.00,VWS V14.01,2013-01-25 04:15:00,
2013-01-24 23:20:00,13.3,-1.0,30.42,NW,307,4.0,12.0,52,0.00,,---,0.00,VWS V14.01,2013-01-25 04:20:00,
2013-01-24 23:25:00,13.3,-1.0,30.43,NW,323,3.0,12.0,52,0.00,,---,0.00,VWS V14.01,2013-01-25 04:25:00,
2013-01-24 23:30:00,13.2,-0.7,30.43,NW,309,3.0,12.0,53,0.00,,---,0.00,VWS V14.01,2013-01-25 04:30:00,
2013-01-24 23:35:00,13.1,-0.8,30.42,WNW,287,7.0,9.0,53,0.00,,---,0.00,VWS V14.01,2013-01-25 04:35:00,
2013-01-24 23:40:00,13.0,-0.9,30.42,West,273,4.0,9.0,53,0.00,,---,0.00,VWS V14.01,2013-01-25 04:40:00,
2013-01-24 23:45:00,12.9,-0.6,30.42,West,281,8.0,11.0,54,0.00,,---,0.00,VWS V14.01,2013-01-25 04:45:00,
2013-01-24 23:50:00,12.9,-1.0,30.42,West,281,4.0,11.0,53,0.00,,---,0.00,VWS V14.01,2013-01-25 04:50:00,
2013-01-24 23:55:00,12.9,-1.0,30.42,NNW,334,6.0,17.0,53,0.00,,---,0.00,VWS V14.01,2013-01-25 04:55:00,